Time;durP1;ratioP1;P1;durP2;ratioP2;P2;SDS_P1;SDS_P2;PMS_P1;PMS_P2;Temp;Humidity;BMP_temperature;BMP_pressure;BME280_temperature;BME280_humidity;BME280_pressure;Samples;Min_cycle;Max_cycle;Signal;HPM_P1;HPM_P2
2023/05/27 00:00:27;;;;;;;11.13;7.63;;;;;;;;;;5078097;28;20479;-74
2023/05/27 00:02:54;;;;;;;17.50;8.23;;;;;;;;;;5077021;28;20452;-74
2023/05/27 00:05:21;;;;;;;12.30;8.53;;;;;;;;;;5076646;28;20455;-74
2023/05/27 00:07:48;;;;;;;8.53;7.30;;;;;;;;;;5076780;28;20863;-74
2023/05/27 00:10:16;;;;;;;15.00;8.80;;;;;;;;;;5076052;28;20475;-74
2023/05/27 00:12:43;;;;;;;12.70;7.97;;;;;;;;;;5076410;28;20459;-74
2023/05/27 00:15:10;;;;;;;12.60;8.70;;;;;;;;;;5076613;28;20436;-74
2023/05/27 00:17:39;;;;;;;12.30;8.37;;;;;;;;;;5076366;28;20484;-74
2023/05/27 00:20:08;;;;;;;12.10;8.93;;;;;;;;;;5076329;28;21049;-74
2023/05/27 00:22:36;;;;;;;11.60;7.47;;;;;;;;;;5076633;28;20992;-74
2023/05/27 00:25:03;;;;;;;18.43;8.23;;;;;;;;;;5075855;28;20455;-74
2023/05/27 00:27:30;;;;;;;11.40;7.40;;;;;;;;;;5076368;28;20436;-74
2023/05/27 00:29:57;;;;;;;15.20;8.50;;;;;;;;;;5075675;28;20514;-74
2023/05/27 00:32:25;;;;;;;13.10;8.07;;;;;;;;;;5075597;28;20451;-74
2023/05/27 00:34:53;;;;;;;10.90;8.93;;;;;;;;;;5076378;28;20454;-74
2023/05/27 00:37:20;;;;;;;13.93;8.67;;;;;;;;;;5075744;28;20920;-74
2023/05/27 00:39:47;;;;;;;11.03;8.60;;;;;;;;;;5075861;28;20471;-74
2023/05/27 00:42:15;;;;;;;9.77;7.60;;;;;;;;;;5075408;28;20456;-74
2023/05/27 00:44:42;;;;;;;11.90;7.00;;;;;;;;;;5076328;28;20432;-74
2023/05/27 00:47:09;;;;;;;12.20;6.67;;;;;;;;;;5075774;28;20820;-74
2023/05/27 00:49:36;;;;;;;14.03;7.63;;;;;;;;;;5075774;28;20471;-74
2023/05/27 00:52:05;;;;;;;14.30;8.70;;;;;;;;;;5075939;28;20448;-74
2023/05/27 00:54:32;;;;;;;12.80;8.13;;;;;;;;;;5076445;28;20428;-74
2023/05/27 00:57:01;;;;;;;17.00;7.90;;;;;;;;;;5076543;28;20465;-74
2023/05/27 00:59:28;;;;;;;9.70;7.97;;;;;;;;;;5075961;28;20491;-74
2023/05/27 01:01:55;;;;;;;12.03;8.17;;;;;;;;;;5075718;28;20447;-74
2023/05/27 01:04:22;;;;;;;12.60;8.67;;;;;;;;;;5075796;28;20452;-74
2023/05/27 01:06:52;;;;;;;14.13;7.70;;;;;;;;;;5076520;28;20479;-74
2023/05/27 01:09:26;;;;;;;20.50;10.47;;;;;;;;;;5075480;28;20978;-74
2023/05/27 01:11:58;;;;;;;13.33;9.30;;;;;;;;;;5075830;28;20815;-74
2023/05/27 01:14:26;;;;;;;13.60;7.37;;;;;;;;;;5075790;28;20436;-73
2023/05/27 01:16:56;;;;;;;16.50;8.17;;;;;;;;;;5076131;28;20455;-74
2023/05/27 01:19:30;;;;;;;14.00;7.30;;;;;;;;;;5075645;28;20571;-74
2023/05/27 01:21:58;;;;;;;10.20;7.73;;;;;;;;;;5075736;28;20902;-74
2023/05/27 01:24:27;;;;;;;14.00;8.77;;;;;;;;;;5075947;28;20436;-74
2023/05/27 01:26:55;;;;;;;13.83;7.70;;;;;;;;;;5075360;28;20447;-74
2023/05/27 01:29:22;;;;;;;11.97;7.83;;;;;;;;;;5075629;28;20479;-74
2023/05/27 01:31:53;;;;;;;14.40;7.70;;;;;;;;;;5075659;28;20462;-74
2023/05/27 01:34:22;;;;;;;12.10;7.27;;;;;;;;;;5075227;28;20448;-74
2023/05/27 01:36:53;;;;;;;11.77;7.90;;;;;;;;;;5074891;28;20439;-74
2023/05/27 01:39:21;;;;;;;16.10;8.53;;;;;;;;;;5075774;28;20494;-74
2023/05/27 01:41:50;;;;;;;7.80;7.00;;;;;;;;;;5075075;28;20460;-74
2023/05/27 01:44:19;;;;;;;10.93;7.17;;;;;;;;;;5074791;28;20905;-74
2023/05/27 01:46:46;;;;;;;14.83;8.00;;;;;;;;;;5076862;28;20448;-74
2023/05/27 01:49:13;;;;;;;11.63;6.83;;;;;;;;;;5075595;28;20471;-74
2023/05/27 01:51:41;;;;;;;15.93;7.80;;;;;;;;;;5075415;28;20965;-74
2023/05/27 01:54:08;;;;;;;11.63;7.10;;;;;;;;;;5075248;28;20435;-74
2023/05/27 01:56:35;;;;;;;8.43;7.53;;;;;;;;;;5074845;28;20946;-74
2023/05/27 01:59:03;;;;;;;17.73;8.00;;;;;;;;;;5074801;28;20491;-74
2023/05/27 02:01:33;;;;;;;15.30;7.63;;;;;;;;;;5074649;28;20451;-74
2023/05/27 02:04:00;;;;;;;36.13;8.10;;;;;;;;;;5074490;28;20447;-74
2023/05/27 02:06:28;;;;;;;10.00;7.17;;;;;;;;;;5074557;28;20957;-74
2023/05/27 02:08:55;;;;;;;9.43;6.67;;;;;;;;;;5074977;28;20853;-74
2023/05/27 02:11:22;;;;;;;9.50;7.83;;;;;;;;;;5075565;28;20448;-74
2023/05/27 02:13:52;;;;;;;14.07;8.50;;;;;;;;;;5075442;28;20443;-74
2023/05/27 02:16:21;;;;;;;9.60;8.10;;;;;;;;;;5075478;28;20455;-74
2023/05/27 02:18:49;;;;;;;10.00;8.30;;;;;;;;;;5075021;28;20487;-74
2023/05/27 02:21:16;;;;;;;13.17;7.27;;;;;;;;;;5075455;28;20447;-74
2023/05/27 02:23:43;;;;;;;13.33;8.00;;;;;;;;;;5075431;28;20571;-74
2023/05/27 02:26:11;;;;;;;15.60;8.97;;;;;;;;;;5075291;28;20432;-74
2023/05/27 02:28:38;;;;;;;14.87;8.47;;;;;;;;;;5075787;28;20475;-75
2023/05/27 02:31:05;;;;;;;16.97;9.30;;;;;;;;;;5075674;28;20452;-74
2023/05/27 02:33:33;;;;;;;20.77;8.80;;;;;;;;;;5075697;28;20950;-74
2023/05/27 02:36:00;;;;;;;13.63;7.53;;;;;;;;;;5075018;28;20447;-74
2023/05/27 02:38:27;;;;;;;13.07;7.70;;;;;;;;;;5074520;28;20495;-74
2023/05/27 02:40:55;;;;;;;11.93;7.00;;;;;;;;;;5074446;28;20455;-74
2023/05/27 02:43:22;;;;;;;13.10;6.87;;;;;;;;;;5075284;28;20486;-74
2023/05/27 02:45:49;;;;;;;10.20;7.07;;;;;;;;;;5075376;28;20451;-74
2023/05/27 02:48:16;;;;;;;8.90;6.00;;;;;;;;;;5075034;28;20964;-73
2023/05/27 02:50:45;;;;;;;9.97;6.33;;;;;;;;;;5075338;28;20457;-74
2023/05/27 02:53:12;;;;;;;16.37;7.30;;;;;;;;;;5075341;28;20466;-74
2023/05/27 02:55:39;;;;;;;21.73;7.77;;;;;;;;;;5076296;28;20452;-74
2023/05/27 02:58:06;;;;;;;21.97;9.23;;;;;;;;;;5077896;28;20447;-74
2023/05/27 03:00:34;;;;;;;12.27;7.60;;;;;;;;;;5078432;28;20462;-74
2023/05/27 03:03:03;;;;;;;15.10;8.37;;;;;;;;;;5078335;28;20459;-73
2023/05/27 03:05:31;;;;;;;15.20;6.40;;;;;;;;;;5078672;28;20525;-74
2023/05/27 03:08:00;;;;;;;10.33;7.20;;;;;;;;;;5079365;28;20467;-74
2023/05/27 03:10:27;;;;;;;11.17;6.60;;;;;;;;;;5079700;28;20474;-74
2023/05/27 03:12:55;;;;;;;9.47;6.93;;;;;;;;;;5079232;28;20452;-74
2023/05/27 03:15:22;;;;;;;10.60;7.33;;;;;;;;;;5079549;28;20501;-74
2023/05/27 03:17:49;;;;;;;9.67;7.40;;;;;;;;;;5078524;28;20455;-74
2023/05/27 03:20:18;;;;;;;10.23;7.73;;;;;;;;;;5078168;28;20525;-74
2023/05/27 03:22:45;;;;;;;12.17;7.40;;;;;;;;;;5079553;28;20447;-74
2023/05/27 03:25:14;;;;;;;16.80;9.07;;;;;;;;;;5079264;28;20432;-74
2023/05/27 03:27:42;;;;;;;23.37;9.33;;;;;;;;;;5078800;28;20438;-74
2023/05/27 03:30:09;;;;;;;11.47;6.80;;;;;;;;;;5078227;28;20840;-74
2023/05/27 03:32:36;;;;;;;12.13;7.90;;;;;;;;;;5078263;28;20448;-74
2023/05/27 03:35:03;;;;;;;14.10;7.43;;;;;;;;;;5077862;28;20455;-74
2023/05/27 03:37:30;;;;;;;8.83;7.60;;;;;;;;;;5078352;28;20439;-74
2023/05/27 03:39:58;;;;;;;12.60;6.83;;;;;;;;;;5077862;28;20496;-74
2023/05/27 03:42:26;;;;;;;12.30;6.93;;;;;;;;;;5077616;28;20942;-73
2023/05/27 03:44:53;;;;;;;8.53;6.87;;;;;;;;;;5077870;28;20459;-74
2023/05/27 03:47:21;;;;;;;9.30;6.60;;;;;;;;;;5077101;28;20480;-74
2023/05/27 03:49:48;;;;;;;10.80;7.50;;;;;;;;;;5077846;28;20828;-74
2023/05/27 03:52:15;;;;;;;10.77;6.47;;;;;;;;;;5077585;28;20454;-74
2023/05/27 03:54:43;;;;;;;9.20;6.87;;;;;;;;;;5078227;28;20452;-74
2023/05/27 03:57:10;;;;;;;11.57;7.37;;;;;;;;;;5077303;28;20459;-74
2023/05/27 03:59:38;;;;;;;13.77;7.90;;;;;;;;;;5078164;28;20495;-74
2023/05/27 04:02:06;;;;;;;13.17;7.17;;;;;;;;;;5078046;28;20448;-74
2023/05/27 04:04:33;;;;;;;14.17;7.87;;;;;;;;;;5078025;28;20826;-74
2023/05/27 04:07:00;;;;;;;19.00;7.47;;;;;;;;;;5077140;28;20463;-74
2023/05/27 04:09:28;;;;;;;11.57;7.53;;;;;;;;;;5077803;28;20467;-74
2023/05/27 04:11:55;;;;;;;9.97;7.23;;;;;;;;;;5077454;28;20450;-75
2023/05/27 04:14:22;;;;;;;14.57;7.10;;;;;;;;;;5077143;28;20443;-76
2023/05/27 04:16:50;;;;;;;9.20;6.47;;;;;;;;;;5077217;28;20456;-76
2023/05/27 04:19:17;;;;;;;6.70;5.43;;;;;;;;;;5077665;28;20491;-76
2023/05/27 04:21:45;;;;;;;16.70;6.17;;;;;;;;;;5077137;28;20448;-76
2023/05/27 04:24:12;;;;;;;13.07;5.93;;;;;;;;;;5077183;28;20455;-76
2023/05/27 04:26:40;;;;;;;14.03;6.10;;;;;;;;;;5076354;28;20909;-76
2023/05/27 04:29:09;;;;;;;11.33;5.67;;;;;;;;;;5076144;28;20483;-76
2023/05/27 04:31:36;;;;;;;8.73;5.70;;;;;;;;;;5076167;28;20466;-76
2023/05/27 04:34:04;;;;;;;9.77;5.80;;;;;;;;;;5076574;28;20451;-76
2023/05/27 04:36:33;;;;;;;13.30;5.90;;;;;;;;;;5076142;28;20463;-76
2023/05/27 04:39:01;;;;;;;12.53;6.37;;;;;;;;;;5076665;28;20997;-76
2023/05/27 04:41:28;;;;;;;7.47;5.33;;;;;;;;;;5075573;28;20452;-76
2023/05/27 04:43:56;;;;;;;13.23;5.73;;;;;;;;;;5076231;28;20562;-76
2023/05/27 04:46:24;;;;;;;19.53;6.60;;;;;;;;;;5075950;28;20456;-76
2023/05/27 04:48:52;;;;;;;8.20;5.23;;;;;;;;;;5075751;28;20476;-76
2023/05/27 04:51:20;;;;;;;9.73;5.47;;;;;;;;;;5075944;28;20452;-76
2023/05/27 04:53:48;;;;;;;9.73;6.07;;;;;;;;;;5076245;28;20872;-77
2023/05/27 04:56:17;;;;;;;14.53;6.70;;;;;;;;;;5075678;28;20495;-76
2023/05/27 04:58:46;;;;;;;8.70;5.93;;;;;;;;;;5076389;28;20467;-77
2023/05/27 05:01:17;;;;;;;11.00;5.80;;;;;;;;;;5076566;28;20527;-76
2023/05/27 05:03:51;;;;;;;16.00;6.43;;;;;;;;;;5076076;28;20852;-76
2023/05/27 05:06:20;;;;;;;16.47;6.10;;;;;;;;;;5075260;28;20492;-76
2023/05/27 05:08:48;;;;;;;9.57;5.90;;;;;;;;;;5075299;28;20468;-76
2023/05/27 05:11:15;;;;;;;11.67;5.57;;;;;;;;;;5075917;28;20933;-76
2023/05/27 05:13:43;;;;;;;8.47;4.97;;;;;;;;;;5075990;28;20972;-76
2023/05/27 05:16:10;;;;;;;10.57;4.60;;;;;;;;;;5075567;28;20447;-76
2023/05/27 05:18:37;;;;;;;9.77;4.37;;;;;;;;;;5074984;28;20863;-76
2023/05/27 05:21:04;;;;;;;9.40;5.70;;;;;;;;;;5075418;28;20491;-76
2023/05/27 05:23:36;;;;;;;10.53;4.30;;;;;;;;;;5075348;28;20459;-77
2023/05/27 05:26:06;;;;;;;10.97;4.87;;;;;;;;;;5075750;28;20443;-76
2023/05/27 05:28:34;;;;;;;13.80;5.40;;;;;;;;;;5075251;28;20483;-77
2023/05/27 05:31:01;;;;;;;4.93;4.20;;;;;;;;;;5074844;28;20484;-76
2023/05/27 05:33:28;;;;;;;9.30;5.13;;;;;;;;;;5074940;28;20482;-77
2023/05/27 05:35:55;;;;;;;4.80;4.30;;;;;;;;;;5075008;28;20454;-76
2023/05/27 05:38:22;;;;;;;7.73;4.67;;;;;;;;;;5075297;28;20451;-77
2023/05/27 05:40:52;;;;;;;10.07;4.90;;;;;;;;;;5075064;28;20498;-77
2023/05/27 05:43:20;;;;;;;13.43;6.40;;;;;;;;;;5074747;28;20946;-76
2023/05/27 05:45:47;;;;;;;11.50;5.30;;;;;;;;;;5075159;28;20882;-77
2023/05/27 05:48:14;;;;;;;12.10;5.40;;;;;;;;;;5074608;28;20458;-77
2023/05/27 05:50:41;;;;;;;6.40;4.27;;;;;;;;;;5075308;28;20857;-77
2023/05/27 05:53:08;;;;;;;10.00;4.60;;;;;;;;;;5074988;28;20462;-77
2023/05/27 05:55:35;;;;;;;10.50;5.63;;;;;;;;;;5074462;28;20467;-77
2023/05/27 05:58:04;;;;;;;14.00;5.77;;;;;;;;;;5074755;28;20934;-77
2023/05/27 06:00:31;;;;;;;8.40;5.27;;;;;;;;;;5074551;28;20499;-76
2023/05/27 06:02:58;;;;;;;9.20;4.47;;;;;;;;;;5074615;28;20467;-77
2023/05/27 06:05:26;;;;;;;8.43;4.10;;;;;;;;;;5074349;28;20459;-77
2023/05/27 06:07:54;;;;;;;12.43;5.70;;;;;;;;;;5074581;28;20448;-77
2023/05/27 06:10:21;;;;;;;11.40;5.37;;;;;;;;;;5074386;28;20495;-77
2023/05/27 06:12:48;;;;;;;11.80;5.27;;;;;;;;;;5074669;28;20458;-77
2023/05/27 06:15:16;;;;;;;12.90;5.63;;;;;;;;;;5074216;28;20472;-77
2023/05/27 06:17:44;;;;;;;11.80;5.40;;;;;;;;;;5074759;28;20868;-77
2023/05/27 06:20:12;;;;;;;8.30;4.80;;;;;;;;;;5074723;28;21023;-77
2023/05/27 06:22:39;;;;;;;13.07;5.17;;;;;;;;;;5074314;28;20941;-77
2023/05/27 06:25:06;;;;;;;8.00;4.37;;;;;;;;;;5074334;28;20478;-76
2023/05/27 06:27:33;;;;;;;8.27;4.57;;;;;;;;;;5074044;28;20432;-77
2023/05/27 06:30:00;;;;;;;8.33;5.03;;;;;;;;;;5075548;28;20486;-77
2023/05/27 06:32:29;;;;;;;8.33;5.20;;;;;;;;;;5078194;28;20834;-77
2023/05/27 06:34:56;;;;;;;11.30;4.80;;;;;;;;;;5077634;28;20458;-77
2023/05/27 06:37:23;;;;;;;11.93;6.07;;;;;;;;;;5077515;28;20455;-77
2023/05/27 06:39:50;;;;;;;7.67;5.13;;;;;;;;;;5077935;28;20487;-77
2023/05/27 06:42:18;;;;;;;8.73;5.57;;;;;;;;;;5078125;28;20451;-77
2023/05/27 06:44:45;;;;;;;8.10;5.20;;;;;;;;;;5077335;28;20463;-77
2023/05/27 06:47:13;;;;;;;15.83;5.97;;;;;;;;;;5077395;28;20440;-77
2023/05/27 06:49:42;;;;;;;8.73;5.33;;;;;;;;;;5077293;28;20472;-78
2023/05/27 06:52:09;;;;;;;9.70;5.67;;;;;;;;;;5077531;28;20455;-77
2023/05/27 06:54:36;;;;;;;10.80;5.20;;;;;;;;;;5077561;28;20824;-77
2023/05/27 06:57:03;;;;;;;7.97;5.10;;;;;;;;;;5077469;28;20458;-77
2023/05/27 06:59:30;;;;;;;10.47;5.50;;;;;;;;;;5077608;28;20487;-77
2023/05/27 07:01:58;;;;;;;13.03;4.93;;;;;;;;;;5077391;28;20459;-77
2023/05/27 07:04:26;;;;;;;9.00;5.77;;;;;;;;;;5077189;28;20487;-77
2023/05/27 07:06:54;;;;;;;9.53;5.60;;;;;;;;;;5077096;28;20459;-77
2023/05/27 07:09:21;;;;;;;8.60;5.47;;;;;;;;;;5077593;28;20475;-77
2023/05/27 07:11:48;;;;;;;9.13;5.70;;;;;;;;;;5078069;28;20997;-77
2023/05/27 07:14:15;;;;;;;8.40;5.50;;;;;;;;;;5077405;28;20447;-77
2023/05/27 07:16:43;;;;;;;13.83;6.47;;;;;;;;;;5077659;28;20815;-77
2023/05/27 07:19:10;;;;;;;10.53;5.50;;;;;;;;;;5077656;28;20479;-77
2023/05/27 07:21:37;;;;;;;12.03;4.93;;;;;;;;;;5077836;28;20514;-77
2023/05/27 07:24:06;;;;;;;10.03;5.80;;;;;;;;;;5077927;28;20475;-77
2023/05/27 07:26:33;;;;;;;12.43;7.40;;;;;;;;;;5077607;28;20432;-76
2023/05/27 07:29:00;;;;;;;12.40;6.33;;;;;;;;;;5077662;28;20484;-77
2023/05/27 07:31:28;;;;;;;13.37;6.53;;;;;;;;;;5077580;28;20452;-77
2023/05/27 07:33:55;;;;;;;10.97;5.33;;;;;;;;;;5077049;28;20452;-77
2023/05/27 07:36:22;;;;;;;8.13;4.70;;;;;;;;;;5076850;28;20440;-77
2023/05/27 07:38:49;;;;;;;9.03;5.57;;;;;;;;;;5076659;28;20974;-77
2023/05/27 07:41:18;;;;;;;9.43;5.80;;;;;;;;;;5075717;28;20495;-77
2023/05/27 07:43:45;;;;;;;8.50;5.13;;;;;;;;;;5076775;28;20451;-77
2023/05/27 07:46:12;;;;;;;14.03;5.73;;;;;;;;;;5076665;28;20454;-77
2023/05/27 07:48:39;;;;;;;11.00;5.30;;;;;;;;;;5075991;28;20471;-77
2023/05/27 07:51:06;;;;;;;7.77;5.00;;;;;;;;;;5076385;28;20455;-77
2023/05/27 07:53:34;;;;;;;8.00;5.10;;;;;;;;;;5076718;28;20459;-77
2023/05/27 07:56:01;;;;;;;7.23;5.07;;;;;;;;;;5076661;28;20451;-77
2023/05/27 07:58:29;;;;;;;11.13;5.17;;;;;;;;;;5076132;28;20476;-76
2023/05/27 08:00:56;;;;;;;8.63;4.97;;;;;;;;;;5076085;28;20482;-76
2023/05/27 08:03:23;;;;;;;6.93;5.37;;;;;;;;;;5076632;28;20451;-77
2023/05/27 08:05:51;;;;;;;9.33;5.27;;;;;;;;;;5076561;28;20452;-77
2023/05/27 08:08:18;;;;;;;11.00;5.73;;;;;;;;;;5076428;28;20455;-76
2023/05/27 08:10:46;;;;;;;8.83;4.70;;;;;;;;;;5076365;28;20824;-77
2023/05/27 08:13:13;;;;;;;8.20;5.07;;;;;;;;;;5075907;28;20899;-76
2023/05/27 08:15:42;;;;;;;10.60;4.70;;;;;;;;;;5076196;28;20451;-76
2023/05/27 08:18:09;;;;;;;7.77;4.80;;;;;;;;;;5075824;28;20447;-77
2023/05/27 08:20:36;;;;;;;9.67;5.20;;;;;;;;;;5075759;28;20487;-77
2023/05/27 08:23:03;;;;;;;7.43;4.47;;;;;;;;;;5075836;28;20459;-77
2023/05/27 08:25:30;;;;;;;8.90;5.17;;;;;;;;;;5076053;28;20511;-77
2023/05/27 08:28:01;;;;;;;9.50;5.60;;;;;;;;;;5075954;28;22294;-77
2023/05/27 08:30:28;;;;;;;6.63;3.80;;;;;;;;;;5075835;28;20475;-77
2023/05/27 08:32:57;;;;;;;11.50;5.70;;;;;;;;;;5075553;28;20460;-77
2023/05/27 08:35:24;;;;;;;8.13;4.90;;;;;;;;;;5075593;28;20452;-77
2023/05/27 08:37:51;;;;;;;5.63;4.03;;;;;;;;;;5075846;28;20451;-77
2023/05/27 08:40:19;;;;;;;12.63;4.20;;;;;;;;;;5075576;28;20491;-77
2023/05/27 08:42:47;;;;;;;4.97;4.10;;;;;;;;;;5075615;28;20447;-77
2023/05/27 08:45:14;;;;;;;6.70;4.57;;;;;;;;;;5075123;28;20452;-77
2023/05/27 08:47:42;;;;;;;6.50;4.63;;;;;;;;;;5074946;28;20463;-77
2023/05/27 08:50:11;;;;;;;8.10;4.70;;;;;;;;;;5075647;28;20816;-77
2023/05/27 08:52:39;;;;;;;5.60;4.77;;;;;;;;;;5075346;28;20523;-77
2023/05/27 08:55:08;;;;;;;11.03;6.20;;;;;;;;;;5074960;28;20463;-76
2023/05/27 08:57:36;;;;;;;6.80;4.40;;;;;;;;;;5075259;28;20506;-77
2023/05/27 09:00:11;;;;;;;12.10;5.63;;;;;;;;;;5074770;28;20468;-77
2023/05/27 09:02:38;;;;;;;7.90;5.30;;;;;;;;;;5075089;28;20813;-77
2023/05/27 09:05:06;;;;;;;7.67;5.00;;;;;;;;;;5075092;28;20447;-77
2023/05/27 09:07:34;;;;;;;8.97;4.67;;;;;;;;;;5074828;28;20462;-76
2023/05/27 09:10:01;;;;;;;9.57;4.37;;;;;;;;;;5074751;28;20482;-77
2023/05/27 09:12:28;;;;;;;7.57;4.60;;;;;;;;;;5074505;28;20455;-77
2023/05/27 09:14:55;;;;;;;10.30;5.00;;;;;;;;;;5074652;28;20447;-77
2023/05/27 09:17:24;;;;;;;7.00;4.33;;;;;;;;;;5074760;28;20792;-77
2023/05/27 09:19:51;;;;;;;10.00;5.03;;;;;;;;;;5075002;28;20519;-76
2023/05/27 09:22:22;;;;;;;8.03;4.63;;;;;;;;;;5074264;28;20574;-77
2023/05/27 09:24:53;;;;;;;10.00;4.77;;;;;;;;;;5075083;28;20459;-77
2023/05/27 09:27:20;;;;;;;12.50;4.60;;;;;;;;;;5074717;28;20440;-77
2023/05/27 09:29:47;;;;;;;8.33;4.40;;;;;;;;;;5074391;28;20487;-77
2023/05/27 09:32:25;;;;;;;7.60;4.40;;;;;;;;;;5074462;28;20560;-77
2023/05/27 09:34:52;;;;;;;6.30;4.30;;;;;;;;;;5074677;28;20535;-76
2023/05/27 09:37:21;;;;;;;10.37;4.80;;;;;;;;;;5074646;28;20478;-77
2023/05/27 09:39:48;;;;;;;6.70;4.40;;;;;;;;;;5074190;28;20510;-77
2023/05/27 09:42:16;;;;;;;6.43;4.60;;;;;;;;;;5074276;28;20484;-76
2023/05/27 09:44:48;;;;;;;8.07;4.90;;;;;;;;;;5073013;28;20826;-75
2023/05/27 09:47:17;;;;;;;8.30;4.83;;;;;;;;;;5072729;28;20509;-75
2023/05/27 09:49:44;;;;;;;7.13;4.00;;;;;;;;;;5072871;28;20475;-75
2023/05/27 09:52:13;;;;;;;8.27;4.27;;;;;;;;;;5072994;28;20455;-75
2023/05/27 09:54:41;;;;;;;9.33;5.13;;;;;;;;;;5072960;28;20843;-75
2023/05/27 09:57:08;;;;;;;11.40;4.60;;;;;;;;;;5072738;28;20452;-75
2023/05/27 09:59:36;;;;;;;8.80;5.50;;;;;;;;;;5072473;28;20480;-76
2023/05/27 10:02:04;;;;;;;9.17;4.37;;;;;;;;;;5072850;28;20487;-75
2023/05/27 10:04:32;;;;;;;12.33;5.27;;;;;;;;;;5073402;28;20439;-75
2023/05/27 10:06:59;;;;;;;5.37;3.87;;;;;;;;;;5076820;28;20459;-75
2023/05/27 10:09:26;;;;;;;10.90;4.23;;;;;;;;;;5076685;28;20471;-75
2023/05/27 10:11:55;;;;;;;5.97;3.20;;;;;;;;;;5076910;28;20455;-75
2023/05/27 10:14:22;;;;;;;11.10;3.90;;;;;;;;;;5076604;28;20475;-75
2023/05/27 10:16:57;;;;;;;11.00;4.57;;;;;;;;;;5076749;28;20964;-75
2023/05/27 10:19:25;;;;;;;6.87;4.13;;;;;;;;;;5076606;28;20477;-75
2023/05/27 10:21:53;;;;;;;5.20;3.50;;;;;;;;;;5076700;28;20958;-75
2023/05/27 10:24:20;;;;;;;8.07;4.30;;;;;;;;;;5076208;28;20452;-75
2023/05/27 10:26:48;;;;;;;8.23;4.40;;;;;;;;;;5076507;28;20459;-75
2023/05/27 10:29:16;;;;;;;8.37;3.83;;;;;;;;;;5075945;28;20939;-75
2023/05/27 10:31:46;;;;;;;7.40;3.70;;;;;;;;;;5076275;28;20452;-75
2023/05/27 10:34:15;;;;;;;8.43;3.77;;;;;;;;;;5076417;28;20450;-75
2023/05/27 10:36:43;;;;;;;6.60;4.30;;;;;;;;;;5076561;28;20455;-75
2023/05/27 10:39:14;;;;;;;8.47;4.53;;;;;;;;;;5075826;28;20482;-75
2023/05/27 10:41:41;;;;;;;7.20;4.70;;;;;;;;;;5076437;28;21023;-75
2023/05/27 10:44:08;;;;;;;10.90;4.57;;;;;;;;;;5076017;28;20462;-75
2023/05/27 10:46:40;;;;;;;7.83;4.40;;;;;;;;;;5076103;28;20463;-75
2023/05/27 10:49:11;;;;;;;8.53;3.90;;;;;;;;;;5076099;28;20506;-75
2023/05/27 10:51:40;;;;;;;8.67;3.90;;;;;;;;;;5076203;28;20926;-75
2023/05/27 10:54:07;;;;;;;6.53;4.17;;;;;;;;;;5075930;28;20456;-75
2023/05/27 10:56:34;;;;;;;10.60;3.93;;;;;;;;;;5075848;28;20496;-75
2023/05/27 10:59:02;;;;;;;4.83;3.60;;;;;;;;;;5075491;28;20977;-75
2023/05/27 11:01:31;;;;;;;11.73;5.43;;;;;;;;;;5076229;28;20637;-75
2023/05/27 11:03:59;;;;;;;5.20;3.43;;;;;;;;;;5075839;28;20473;-75
2023/05/27 11:06:26;;;;;;;7.33;3.73;;;;;;;;;;5075957;28;20459;-75
2023/05/27 11:08:55;;;;;;;11.20;4.57;;;;;;;;;;5075471;28;20464;-75
2023/05/27 11:11:22;;;;;;;8.00;4.63;;;;;;;;;;5075758;28;20439;-75
2023/05/27 11:13:49;;;;;;;11.13;4.50;;;;;;;;;;5075683;28;20958;-75
2023/05/27 11:16:17;;;;;;;7.70;3.53;;;;;;;;;;5074232;28;20447;-75
2023/05/27 11:18:45;;;;;;;7.60;3.60;;;;;;;;;;5075329;28;20878;-75
2023/05/27 11:21:12;;;;;;;7.40;4.30;;;;;;;;;;5075514;28;20488;-75
2023/05/27 11:23:41;;;;;;;7.10;3.97;;;;;;;;;;5075202;28;20467;-75
2023/05/27 11:26:18;;;;;;;7.57;3.97;;;;;;;;;;5075271;28;20487;-75
2023/05/27 11:28:50;;;;;;;5.80;3.70;;;;;;;;;;5075034;28;20479;-75
2023/05/27 11:31:17;;;;;;;9.00;4.77;;;;;;;;;;5075153;28;20547;-75
2023/05/27 11:33:45;;;;;;;5.57;3.90;;;;;;;;;;5075087;28;20468;-75
2023/05/27 11:36:13;;;;;;;12.43;3.90;;;;;;;;;;5075015;28;20463;-75
2023/05/27 11:38:56;;;;;;;8.50;4.10;;;;;;;;;;5074876;28;20468;-75
2023/05/27 11:41:26;;;;;;;7.40;4.33;;;;;;;;;;5075184;28;20494;-75
2023/05/27 11:43:54;;;;;;;7.23;4.27;;;;;;;;;;5075377;28;20933;-75
2023/05/27 11:46:22;;;;;;;6.73;4.50;;;;;;;;;;5075165;28;20471;-75
2023/05/27 11:48:49;;;;;;;7.87;3.60;;;;;;;;;;5074600;28;20468;-76
2023/05/27 11:51:17;;;;;;;14.43;4.80;;;;;;;;;;5074867;28;20456;-75
2023/05/27 11:53:46;;;;;;;7.30;5.10;;;;;;;;;;5075063;28;20941;-75
2023/05/27 11:56:13;;;;;;;5.90;4.30;;;;;;;;;;5074620;28;20456;-75
2023/05/27 11:58:41;;;;;;;9.83;4.13;;;;;;;;;;5074679;28;20475;-75
2023/05/27 12:01:09;;;;;;;9.57;4.30;;;;;;;;;;5074649;28;20460;-75
2023/05/27 12:03:36;;;;;;;6.40;4.40;;;;;;;;;;5074570;28;20501;-75
2023/05/27 12:06:03;;;;;;;6.53;4.73;;;;;;;;;;5074683;28;20460;-75
2023/05/27 12:08:30;;;;;;;6.20;3.93;;;;;;;;;;5074544;28;20475;-75
2023/05/27 12:10:57;;;;;;;5.27;3.80;;;;;;;;;;5074735;28;20941;-76
2023/05/27 12:13:25;;;;;;;7.80;4.30;;;;;;;;;;5074452;28;20471;-75
2023/05/27 12:15:54;;;;;;;5.63;4.23;;;;;;;;;;5074539;28;20456;-75
2023/05/27 12:18:21;;;;;;;13.10;4.60;;;;;;;;;;5074320;28;20919;-75
2023/05/27 12:20:48;;;;;;;9.50;5.27;;;;;;;;;;5074213;28;20452;-75
2023/05/27 12:23:15;;;;;;;13.47;5.37;;;;;;;;;;5074307;28;20486;-75
2023/05/27 12:25:43;;;;;;;10.90;4.90;;;;;;;;;;5074049;28;20455;-75
2023/05/27 12:28:11;;;;;;;6.43;4.30;;;;;;;;;;5073764;28;20954;-75
2023/05/27 12:30:38;;;;;;;10.97;4.47;;;;;;;;;;5074089;28;20451;-75
2023/05/27 12:33:07;;;;;;;8.73;4.97;;;;;;;;;;5074120;28;20796;-75
2023/05/27 12:35:34;;;;;;;8.80;4.60;;;;;;;;;;5074072;28;20458;-75
2023/05/27 12:38:01;;;;;;;9.30;3.83;;;;;;;;;;5074007;28;20583;-75
2023/05/27 12:40:29;;;;;;;8.63;4.73;;;;;;;;;;5073920;28;20823;-75
2023/05/27 12:42:56;;;;;;;9.87;4.00;;;;;;;;;;5073777;28;20491;-75
2023/05/27 12:45:25;;;;;;;8.23;4.60;;;;;;;;;;5073871;28;20455;-75
2023/05/27 12:47:52;;;;;;;7.90;3.80;;;;;;;;;;5073968;28;20483;-75
2023/05/27 12:50:21;;;;;;;6.77;4.67;;;;;;;;;;5073273;28;20550;-75
2023/05/27 12:52:51;;;;;;;6.20;3.83;;;;;;;;;;5073578;28;20451;-75
2023/05/27 12:55:18;;;;;;;5.77;4.57;;;;;;;;;;5073527;28;20500;-75
2023/05/27 12:57:46;;;;;;;6.33;4.20;;;;;;;;;;5073714;28;20450;-75
2023/05/27 13:00:13;;;;;;;10.27;3.90;;;;;;;;;;5073091;28;20468;-75
2023/05/27 13:02:41;;;;;;;9.43;4.10;;;;;;;;;;5073446;28;21001;-75
2023/05/27 13:05:08;;;;;;;6.87;4.13;;;;;;;;;;5073226;28;20456;-75
2023/05/27 13:07:39;;;;;;;8.67;3.80;;;;;;;;;;5073365;28;20459;-75
2023/05/27 13:10:07;;;;;;;17.20;3.80;;;;;;;;;;5073179;28;20479;-75
2023/05/27 13:12:34;;;;;;;5.57;3.77;;;;;;;;;;5073543;28;20447;-75
2023/05/27 13:15:03;;;;;;;8.40;3.83;;;;;;;;;;5073302;28;20582;-75
2023/05/27 13:17:30;;;;;;;10.50;4.60;;;;;;;;;;5073239;28;20464;-75
2023/05/27 13:19:57;;;;;;;8.20;4.00;;;;;;;;;;5073066;28;20470;-75
2023/05/27 13:22:24;;;;;;;6.50;3.80;;;;;;;;;;5073133;28;20491;-75
2023/05/27 13:24:53;;;;;;;7.03;4.73;;;;;;;;;;5073081;28;20443;-75
2023/05/27 13:27:20;;;;;;;7.27;3.73;;;;;;;;;;5073103;28;20938;-75
2023/05/27 13:29:47;;;;;;;7.77;4.53;;;;;;;;;;5072909;28;20480;-75
2023/05/27 13:32:14;;;;;;;7.93;4.30;;;;;;;;;;5073294;28;20817;-75
2023/05/27 13:34:41;;;;;;;7.37;4.30;;;;;;;;;;5073180;28;20459;-75
2023/05/27 13:37:08;;;;;;;7.97;5.10;;;;;;;;;;5073179;28;20455;-75
2023/05/27 13:39:36;;;;;;;11.03;6.53;;;;;;;;;;5072251;28;20471;-75
2023/05/27 13:42:06;;;;;;;5.00;4.27;;;;;;;;;;5073164;28;20487;-75
2023/05/27 13:44:33;;;;;;;6.70;4.13;;;;;;;;;;5073248;28;21022;-75
2023/05/27 13:47:00;;;;;;;6.60;4.83;;;;;;;;;;5072978;28;20456;-75
2023/05/27 13:49:27;;;;;;;6.13;3.50;;;;;;;;;;5072662;28;20476;-75
2023/05/27 13:51:54;;;;;;;7.60;3.63;;;;;;;;;;5073146;28;20937;-75
2023/05/27 13:54:21;;;;;;;15.37;3.90;;;;;;;;;;5072981;28;20456;-75
2023/05/27 13:56:49;;;;;;;9.73;4.80;;;;;;;;;;5072917;28;20451;-75
2023/05/27 13:59:17;;;;;;;7.50;3.70;;;;;;;;;;5072455;28;20475;-75
2023/05/27 14:01:44;;;;;;;7.17;3.97;;;;;;;;;;5072900;28;20455;-75
2023/05/27 14:04:11;;;;;;;7.97;4.37;;;;;;;;;;5072870;28;20447;-75
2023/05/27 14:06:39;;;;;;;8.67;4.13;;;;;;;;;;5072663;28;20452;-75
2023/05/27 14:09:06;;;;;;;4.70;3.70;;;;;;;;;;5072370;28;20476;-75
2023/05/27 14:11:33;;;;;;;6.30;4.23;;;;;;;;;;5072948;28;20516;-75
2023/05/27 14:14:00;;;;;;;8.83;4.40;;;;;;;;;;5072600;28;20463;-75
2023/05/27 14:16:28;;;;;;;11.70;4.70;;;;;;;;;;5072608;28;20451;-75
2023/05/27 14:18:56;;;;;;;5.33;3.90;;;;;;;;;;5072446;28;20970;-75
2023/05/27 14:21:23;;;;;;;8.83;4.13;;;;;;;;;;5072704;28;20803;-75
2023/05/27 14:23:50;;;;;;;3.80;3.10;;;;;;;;;;5072289;28;20484;-76
2023/05/27 14:26:17;;;;;;;9.63;4.17;;;;;;;;;;5072676;28;20451;-75
2023/05/27 14:28:44;;;;;;;7.80;4.10;;;;;;;;;;5072287;28;20488;-75
2023/05/27 14:31:11;;;;;;;6.50;4.37;;;;;;;;;;5072497;28;20542;-74
2023/05/27 14:33:40;;;;;;;7.43;4.23;;;;;;;;;;5072681;28;20447;-75
2023/05/27 14:36:07;;;;;;;5.80;3.93;;;;;;;;;;5072425;28;20934;-75
2023/05/27 14:38:34;;;;;;;6.60;3.37;;;;;;;;;;5072391;28;20479;-75